Time;durP1;ratioP1;P1;durP2;ratioP2;P2;SDS_P1;SDS_P2;PMS_P1;PMS_P2;Temp;Humidity;BMP_temperature;BMP_pressure;BME280_temperature;BME280_humidity;BME280_pressure;Samples;Min_cycle;Max_cycle;Signal;HPM_P1;HPM_P2
2022/07/24 00:00:39;;;;;;;9.40;8.18;;;;;;;33.26;40.27;101487.53;4197105;28;20044;-59
2022/07/24 00:02:41;;;;;;;9.10;7.95;;;;;;;33.26;40.50;101493.22;4197373;28;20045;-59
2022/07/24 00:04:45;;;;;;;8.93;8.10;;;;;;;33.21;40.38;101490.59;4197215;28;20024;-59
2022/07/24 00:06:46;;;;;;;8.48;7.68;;;;;;;33.26;40.22;101504.56;4197117;28;20048;-59
2022/07/24 00:08:48;;;;;;;8.95;8.05;;;;;;;33.24;40.23;101506.94;4196953;28;20093;-59
2022/07/24 00:10:49;;;;;;;8.20;7.50;;;;;;;33.24;40.30;101501.25;4197395;28;20036;-59
2022/07/24 00:12:53;;;;;;;9.15;8.35;;;;;;;33.25;40.41;101508.56;4199374;28;20086;-59
2022/07/24 00:14:58;;;;;;;8.18;7.47;;;;;;;33.25;40.39;101513.44;4200253;28;20105;-59
2022/07/24 00:16:59;;;;;;;8.48;7.68;;;;;;;33.25;40.10;101513.44;4200288;28;20088;-59
2022/07/24 00:19:00;;;;;;;8.68;7.90;;;;;;;33.24;40.17;101517.44;4199748;28;20040;-59
2022/07/24 00:21:05;;;;;;;8.52;7.82;;;;;;;33.23;40.22;101513.78;4199801;28;20040;-59
2022/07/24 00:23:06;;;;;;;8.57;7.70;;;;;;;33.21;40.01;101512.47;4200255;28;20040;-59
2022/07/24 00:25:10;;;;;;;8.70;7.45;;;;;;;33.24;40.16;101517.44;4200087;28;20032;-59
2022/07/24 00:27:12;;;;;;;7.97;7.18;;;;;;;33.23;40.10;101516.63;4199997;28;20036;-59
2022/07/24 00:29:13;;;;;;;8.23;7.35;;;;;;;33.22;40.27;101514.97;4199771;28;20070;-59
2022/07/24 00:31:14;;;;;;;9.13;7.43;;;;;;;33.23;40.17;101525.13;4199867;28;20430;-59
2022/07/24 00:33:19;;;;;;;8.25;7.55;;;;;;;33.20;40.32;101525.81;4199931;28;20040;-59
2022/07/24 00:35:23;;;;;;;8.35;7.57;;;;;;;33.23;39.88;101539.31;4199899;28;20074;-59
2022/07/24 00:37:25;;;;;;;8.48;7.68;;;;;;;33.23;40.05;101539.31;4200056;28;20040;-59
2022/07/24 00:39:26;;;;;;;7.93;7.13;;;;;;;33.23;40.32;101532.81;4199706;28;20036;-59
2022/07/24 00:41:30;;;;;;;8.70;7.88;;;;;;;33.22;40.07;101534.84;4199940;28;20086;-59
2022/07/24 00:43:31;;;;;;;8.73;7.88;;;;;;;33.22;40.12;101537.66;4199784;28;20090;-59
2022/07/24 00:45:33;;;;;;;12.20;7.55;;;;;;;33.00;40.30;101501.22;4199903;28;20032;-59
2022/07/24 00:47:40;;;;;;;9.13;8.18;;;;;;;33.18;40.14;101533.88;4199773;28;20036;-59
2022/07/24 00:49:41;;;;;;;8.57;7.68;;;;;;;33.22;40.20;101542.47;4199329;28;20090;-59
2022/07/24 00:51:45;;;;;;;8.43;7.63;;;;;;;33.22;40.03;101548.16;4199747;28;20040;-59
2022/07/24 00:53:47;;;;;;;8.20;7.40;;;;;;;33.20;40.13;101544.84;4199844;28;20024;-59
2022/07/24 00:55:48;;;;;;;8.13;7.43;;;;;;;33.21;40.26;101547.31;4199637;28;20040;-59
2022/07/24 00:57:50;;;;;;;7.88;7.15;;;;;;;33.21;40.25;101550.16;4199225;28;20041;-59
2022/07/24 00:59:54;;;;;;;8.82;7.80;;;;;;;33.18;40.26;101541.56;4199246;28;20037;-59
2022/07/24 01:01:56;;;;;;;8.23;7.53;;;;;;;33.20;40.26;101544.84;4199624;28;20082;-59
2022/07/24 01:03:57;;;;;;;8.50;7.70;;;;;;;33.19;40.25;101538.34;4199597;28;20032;-59
2022/07/24 01:06:02;;;;;;;8.02;7.32;;;;;;;33.19;40.18;101538.34;4199360;28;20040;-58
2022/07/24 01:08:03;;;;;;;;;;;;;;;33.18;40.40;101541.56;4200015;28;20109;-59
2022/07/24 01:10:06;;;;;;;8.10;6.95;;;;;;;33.24;40.15;101540.13;4199176;28;19912;-59
2022/07/24 01:12:08;;;;;;;8.35;7.45;;;;;;;33.23;39.93;101545.00;4199286;28;20545;-59
2022/07/24 01:14:13;;;;;;;8.30;7.50;;;;;;;33.16;40.23;101538.22;4199295;28;20095;-59
2022/07/24 01:16:17;;;;;;;7.82;7.03;;;;;;;33.16;40.36;101543.91;4199313;28;20098;-59
2022/07/24 01:18:18;;;;;;;9.55;7.82;;;;;;;33.20;40.14;101554.19;4199221;28;20044;-59
2022/07/24 01:20:22;;;;;;;8.82;7.80;;;;;;;33.21;40.53;101553.00;4198588;28;20537;-59
2022/07/24 01:22:27;;;;;;;7.53;6.80;;;;;;;33.20;40.31;101557.03;4198835;28;20097;-59
2022/07/24 01:24:28;;;;;;;8.52;7.72;;;;;;;33.12;40.63;101538.91;4199222;28;20040;-59
2022/07/24 01:26:30;;;;;;;8.00;7.30;;;;;;;33.20;40.56;101557.03;4198542;28;20045;-59
2022/07/24 01:28:31;;;;;;;9.80;7.75;;;;;;;33.20;40.57;101550.53;4199081;28;20426;-59
2022/07/24 01:30:33;;;;;;;8.40;7.60;;;;;;;33.20;40.50;101553.38;4198418;28;20044;-58
2022/07/24 01:32:43;;;;;;;8.27;7.55;;;;;;;33.20;40.70;101550.53;4199067;28;20044;-59
2022/07/24 01:34:47;;;;;;;8.13;7.32;;;;;;;33.19;40.58;101561.03;4199008;28;20037;-59
2022/07/24 01:36:49;;;;;;;8.35;7.53;;;;;;;33.19;40.67;101558.22;4198983;28;20048;-59
2022/07/24 01:38:56;;;;;;;8.25;7.45;;;;;;;33.19;40.73;101569.56;4198117;28;20040;-59
2022/07/24 01:40:57;;;;;;;8.77;7.95;;;;;;;33.17;40.67;101563.38;4198948;28;20041;-59
2022/07/24 01:42:58;;;;;;;8.23;7.53;;;;;;;33.20;40.63;101562.69;4197980;28;20479;-59
2022/07/24 01:45:00;;;;;;;7.85;7.10;;;;;;;33.19;40.81;101572.38;4198889;28;20496;-59
2022/07/24 01:47:04;;;;;;;8.35;7.55;;;;;;;33.20;40.96;101574.03;4198897;28;20074;-59
2022/07/24 01:49:09;;;;;;;8.23;7.53;;;;;;;33.18;40.93;101578.41;4198429;28;20106;-59
2022/07/24 01:51:10;;;;;;;9.05;8.25;;;;;;;33.20;40.89;101585.38;4198308;28;20435;-58
2022/07/24 01:53:11;;;;;;;9.18;8.20;;;;;;;33.17;40.72;101576.75;4198691;28;20040;-59
2022/07/24 01:55:13;;;;;;;8.50;7.70;;;;;;;33.20;40.83;101593.06;4198729;28;20032;-59
2022/07/24 01:57:14;;;;;;;9.00;7.78;;;;;;;33.17;40.97;101583.25;4198709;28;20086;-59
2022/07/24 01:59:15;;;;;;;8.50;7.70;;;;;;;33.19;40.88;101589.41;4198031;28;20476;-59
2022/07/24 02:01:17;;;;;;;8.02;7.32;;;;;;;33.20;41.22;101593.91;4198116;28;20101;-59
2022/07/24 02:03:19;;;;;;;8.57;7.75;;;;;;;33.18;41.00;101593.44;4198342;28;20563;-59
2022/07/24 02:05:20;;;;;;;8.35;7.63;;;;;;;33.20;40.93;101598.75;4198317;28;20452;-59
2022/07/24 02:07:24;;;;;;;8.98;8.18;;;;;;;33.20;41.06;101595.91;4198018;28;20044;-58
2022/07/24 02:09:28;;;;;;;9.02;8.10;;;;;;;33.20;41.36;101593.91;4198146;28;20106;-59
2022/07/24 02:11:30;;;;;;;9.20;7.53;;;;;;;33.20;41.26;101593.91;4198384;28;20143;-59
2022/07/24 02:13:31;;;;;;;9.05;8.15;;;;;;;33.19;41.13;101603.59;4198302;28;20041;-59
2022/07/24 02:15:33;;;;;;;9.00;8.07;;;;;;;33.20;41.21;101612.91;4198435;28;20044;-59
2022/07/24 02:17:44;;;;;;;8.93;7.45;;;;;;;33.19;41.32;101606.44;4198385;28;20041;-59
2022/07/24 02:19:45;;;;;;;7.95;7.15;;;;;;;33.21;41.21;101611.72;4197905;28;20045;-59
2022/07/24 02:21:47;;;;;;;9.68;8.68;;;;;;;33.20;41.50;101613.75;4198375;28;20577;-59
2022/07/24 02:23:51;;;;;;;9.23;8.43;;;;;;;33.20;41.10;101613.75;4198449;28;21712;-59
2022/07/24 02:25:52;;;;;;;9.07;8.18;;;;;;;33.21;41.38;101621.06;4198283;28;20086;-59
2022/07/24 02:27:53;;;;;;;8.95;8.05;;;;;;;33.18;41.19;101610.44;4198078;28;20041;-59
2022/07/24 02:29:55;;;;;;;9.32;8.43;;;;;;;33.20;41.18;101613.75;4197954;28;20044;-59
2022/07/24 02:31:59;;;;;;;8.73;7.93;;;;;;;33.20;41.37;101607.25;4198129;28;20032;-59
2022/07/24 02:34:00;;;;;;;9.43;8.52;;;;;;;33.20;41.24;101602.41;4197631;28;20040;-59
2022/07/24 02:36:02;;;;;;;9.23;8.38;;;;;;;33.20;41.42;101602.41;4197338;28;20028;-59
2022/07/24 02:38:09;;;;;;;8.90;8.02;;;;;;;33.14;41.27;101592.47;4197968;28;20045;-59
2022/07/24 02:40:11;;;;;;;10.05;8.93;;;;;;;33.18;41.40;101593.44;4197591;28;20036;-58
2022/07/24 02:42:12;;;;;;;10.02;8.23;;;;;;;33.20;41.70;101574.03;4197946;28;20542;-59
2022/07/24 02:44:16;;;;;;;10.18;8.68;;;;;;;33.21;41.82;101563.53;4197679;28;20074;-59
2022/07/24 02:46:17;;;;;;;9.25;8.25;;;;;;;33.21;41.73;101552.19;4198131;28;20048;-59
2022/07/24 02:48:19;;;;;;;9.10;8.30;;;;;;;33.20;41.61;101551.34;4197869;28;20125;-59
2022/07/24 02:50:25;;;;;;;9.35;8.45;;;;;;;33.21;41.78;101546.50;4197807;28;20036;-59
2022/07/24 02:52:26;;;;;;;8.77;8.07;;;;;;;33.21;41.83;101547.31;4197871;28;20040;-59
2022/07/24 02:54:30;;;;;;;9.18;8.27;;;;;;;33.21;41.67;101547.31;4198098;28;20024;-59
2022/07/24 02:56:34;;;;;;;9.25;8.35;;;;;;;33.21;41.84;101553.00;4197848;28;20044;-59
2022/07/24 02:58:36;;;;;;;9.55;8.65;;;;;;;33.21;41.96;101541.66;4197516;28;20079;-59
2022/07/24 03:00:40;;;;;;;9.40;8.60;;;;;;;33.21;41.93;101547.31;4197501;28;20041;-59
2022/07/24 03:02:42;;;;;;;9.05;8.15;;;;;;;33.17;42.04;101535.03;4197676;28;20558;-60
2022/07/24 03:04:43;;;;;;;9.35;8.38;;;;;;;33.20;41.89;101545.69;4197706;28;20037;-59
2022/07/24 03:06:45;;;;;;;9.50;8.60;;;;;;;33.23;41.93;101538.50;4197602;28;20040;-59
2022/07/24 03:08:46;;;;;;;9.20;8.30;;;;;;;33.21;42.20;101538.81;4197462;28;20048;-59
2022/07/24 03:10:50;;;;;;;10.57;8.65;;;;;;;33.17;42.10;101540.69;4197726;28;20036;-59
2022/07/24 03:12:51;;;;;;;10.18;9.15;;;;;;;33.22;42.14;101554.69;4197347;28;20093;-59
2022/07/24 03:14:55;;;;;;;9.52;8.63;;;;;;;33.22;42.07;101556.66;4197806;28;20048;-59
2022/07/24 03:16:57;;;;;;;9.63;8.77;;;;;;;33.21;42.27;101558.66;4197680;28;20067;-59
2022/07/24 03:19:01;;;;;;;9.93;9.00;;;;;;;33.15;42.36;101551.59;4196808;28;20097;-59
2022/07/24 03:21:08;;;;;;;9.05;8.25;;;;;;;33.23;42.18;101550.66;4197603;28;20040;-59
2022/07/24 03:23:12;;;;;;;9.98;9.07;;;;;;;33.22;42.27;101560.34;4197304;28;20062;-59
2022/07/24 03:25:14;;;;;;;10.00;9.10;;;;;;;33.21;42.36;101557.84;4197476;28;20040;-59
2022/07/24 03:27:15;;;;;;;9.18;8.38;;;;;;;33.23;42.26;101558.34;4197456;28;20086;-59
2022/07/24 03:29:17;;;;;;;9.25;8.45;;;;;;;33.23;42.57;101549.84;4197145;28;20036;-59
2022/07/24 03:31:18;;;;;;;10.10;9.15;;;;;;;33.23;42.44;101549.84;4197263;28;20041;-59
2022/07/24 03:33:19;;;;;;;9.98;8.85;;;;;;;33.22;42.41;101543.34;4197587;28;20106;-59
2022/07/24 03:35:21;;;;;;;10.02;9.13;;;;;;;33.23;42.38;101541.31;4197459;28;20113;-59
2022/07/24 03:37:22;;;;;;;9.57;8.60;;;;;;;33.23;42.46;101532.81;4197441;28;20046;-59
2022/07/24 03:39:24;;;;;;;9.25;8.35;;;;;;;33.19;42.33;101524.19;4197029;28;20105;-58
2022/07/24 03:41:25;;;;;;;9.80;8.70;;;;;;;33.23;42.46;101527.97;4197454;28;20086;-58
2022/07/24 03:43:26;;;;;;;9.95;9.05;;;;;;;33.23;42.45;101525.13;4197078;28;20045;-59
2022/07/24 03:45:28;;;;;;;9.75;8.85;;;;;;;33.23;42.51;101522.31;4196277;28;20037;-58
2022/07/24 03:47:29;;;;;;;9.50;8.60;;;;;;;33.24;42.45;101526.78;4199050;28;20036;-59
2022/07/24 03:49:33;;;;;;;10.20;8.95;;;;;;;33.24;42.66;101520.28;4200256;28;20040;-59
2022/07/24 03:51:38;;;;;;;9.35;8.45;;;;;;;33.24;42.55;101518.28;4200824;28;20128;-59
2022/07/24 03:53:39;;;;;;;10.45;9.45;;;;;;;33.21;42.59;101513.28;4200935;28;20426;-59
2022/07/24 03:55:43;;;;;;;10.32;9.43;;;;;;;33.24;42.65;101518.28;4200687;28;20041;-59
2022/07/24 03:57:56;;;;;;;9.25;8.45;;;;;;;33.20;42.45;101511.66;4200588;28;20098;-59
2022/07/24 03:59:57;;;;;;;10.00;9.10;;;;;;;33.25;42.89;101517.09;4200097;28;20040;-59
2022/07/24 04:01:59;;;;;;;9.45;8.55;;;;;;;33.25;42.60;101525.59;4200231;28;20040;-59
2022/07/24 04:04:04;;;;;;;10.38;9.15;;;;;;;33.24;42.66;101521.13;4200474;28;20052;-59
2022/07/24 04:06:08;;;;;;;9.45;8.65;;;;;;;33.23;42.61;101527.97;4200199;28;20114;-59
2022/07/24 04:08:12;;;;;;;9.80;8.90;;;;;;;33.24;42.74;101532.47;4200584;28;20070;-59
2022/07/24 04:10:13;;;;;;;11.90;8.68;;;;;;;33.24;42.67;101535.28;4200251;28;20029;-59
2022/07/24 04:12:15;;;;;;;9.32;8.50;;;;;;;33.25;42.76;101530.44;4200438;28;20040;-59
2022/07/24 04:14:19;;;;;;;9.85;8.85;;;;;;;33.19;42.49;101527.00;4200541;28;20476;-59
2022/07/24 04:16:23;;;;;;;9.20;8.40;;;;;;;33.25;42.92;101534.09;4200441;28;20032;-59
2022/07/24 04:18:25;;;;;;;9.18;8.38;;;;;;;33.26;42.85;101530.09;4200497;28;20098;-59
2022/07/24 04:20:26;;;;;;;10.52;9.52;;;;;;;33.26;42.82;101521.56;4200001;28;20032;-59
2022/07/24 04:22:27;;;;;;;9.85;8.95;;;;;;;33.25;42.84;101536.94;4199911;28;20096;-59
2022/07/24 04:24:29;;;;;;;11.27;8.77;;;;;;;33.24;42.83;101538.13;4200247;28;20488;-58
2022/07/24 04:26:30;;;;;;;9.68;8.77;;;;;;;33.26;42.70;101532.91;4200119;28;20086;-59
2022/07/24 04:28:32;;;;;;;9.13;8.32;;;;;;;33.26;42.56;101541.44;4200209;28;20032;-59
2022/07/24 04:30:33;;;;;;;9.07;8.18;;;;;;;33.27;42.64;101536.63;4200098;28;20078;-59
2022/07/24 04:32:34;;;;;;;9.55;8.65;;;;;;;33.26;42.70;101532.91;4200311;28;20045;-58
2022/07/24 04:34:36;;;;;;;9.48;8.57;;;;;;;33.26;42.79;101524.41;4199845;28;20165;-59
2022/07/24 04:36:37;;;;;;;10.43;9.30;;;;;;;33.21;42.68;101515.31;4199881;28;20079;-59
2022/07/24 04:38:41;;;;;;;10.57;9.48;;;;;;;33.26;42.82;101521.56;4200010;28;20529;-59
2022/07/24 04:40:43;;;;;;;9.88;8.98;;;;;;;33.26;42.89;101523.59;4200055;28;20555;-59
2022/07/24 04:42:49;;;;;;;10.10;9.20;;;;;;;33.26;42.85;101524.41;4199766;28;20036;-58
2022/07/24 04:44:51;;;;;;;9.80;8.90;;;;;;;33.27;42.81;101520.41;4200106;28;20475;-59
2022/07/24 04:46:55;;;;;;;9.88;8.98;;;;;;;33.19;42.79;101514.84;4200121;28;20029;-59
2022/07/24 04:48:56;;;;;;;10.65;9.65;;;;;;;33.25;43.16;101517.09;4199784;28;20361;-59
2022/07/24 04:50:57;;;;;;;9.50;8.70;;;;;;;33.26;42.98;101515.91;4199945;28;20074;-59
2022/07/24 04:52:59;;;;;;;9.40;8.50;;;;;;;33.25;42.90;101531.28;4200052;28;20082;-59
2022/07/24 04:55:00;;;;;;;9.90;9.05;;;;;;;33.22;42.90;101520.66;4199686;28;20033;-59
2022/07/24 04:57:03;;;;;;;9.68;8.73;;;;;;;33.26;42.67;101527.25;4199694;28;20040;-59
2022/07/24 04:59:04;;;;;;;10.93;9.82;;;;;;;33.18;42.97;101508.34;4198992;28;20090;-59
2022/07/24 05:01:08;;;;;;;9.82;8.93;;;;;;;33.25;42.65;101519.94;4199582;28;20074;-60
2022/07/24 05:03:09;;;;;;;9.73;8.82;;;;;;;33.24;43.16;101523.13;4199825;28;20029;-59
2022/07/24 05:05:11;;;;;;;9.35;8.55;;;;;;;33.25;42.78;101528.44;4199581;28;20093;-59
2022/07/24 05:07:15;;;;;;;10.10;9.20;;;;;;;33.26;43.04;101532.91;4199425;28;20398;-59
2022/07/24 05:09:17;;;;;;;9.48;8.57;;;;;;;33.25;42.77;101539.78;4199152;28;20038;-59
2022/07/24 05:11:21;;;;;;;10.23;8.90;;;;;;;33.27;43.37;101539.44;4199138;28;20090;-59
2022/07/24 05:13:31;;;;;;;10.98;9.70;;;;;;;33.27;43.24;101545.94;4199348;28;20036;-59
2022/07/24 05:15:32;;;;;;;10.23;9.23;;;;;;;33.26;42.99;101538.59;4199493;28;20028;-59
2022/07/24 05:17:40;;;;;;;9.77;8.80;;;;;;;33.27;43.12;101536.63;4199374;28;20093;-59
2022/07/24 05:19:41;;;;;;;10.02;9.13;;;;;;;33.26;43.10;101537.75;4198905;28;20114;-59
2022/07/24 05:21:43;;;;;;;9.38;8.50;;;;;;;33.26;42.90;101544.25;4199177;28;20094;-59
2022/07/24 05:23:50;;;;;;;10.00;9.10;;;;;;;33.27;43.24;101550.78;4199313;28;20044;-60
2022/07/24 05:25:51;;;;;;;10.32;9.43;;;;;;;33.26;43.14;101549.09;4198495;28;20472;-59
2022/07/24 05:27:56;;;;;;;10.48;9.32;;;;;;;33.25;43.38;101547.47;4198859;28;20040;-59
2022/07/24 05:29:57;;;;;;;9.77;8.88;;;;;;;33.24;43.10;101546.63;4198880;28;20101;-59
2022/07/24 05:31:58;;;;;;;10.57;9.15;;;;;;;33.22;43.05;101536.81;4198788;28;20040;-59
2022/07/24 05:34:03;;;;;;;9.57;8.68;;;;;;;33.19;43.18;101531.88;4199133;28;20082;-59
2022/07/24 05:36:04;;;;;;;;;;;;;;;33.24;42.98;101534.47;4199394;28;20036;-59
2022/07/24 05:38:05;;;;;;;10.07;9.07;;;;;;;33.30;43.02;101539.53;4199228;28;19912;-59
2022/07/24 05:40:07;;;;;;;10.50;9.52;;;;;;;33.27;42.95;101540.28;4198874;28;20036;-59
2022/07/24 05:42:14;;;;;;;10.35;9.35;;;;;;;33.28;43.36;101530.56;4199158;28;20094;-59
2022/07/24 05:44:15;;;;;;;9.95;8.95;;;;;;;33.29;43.43;101525.72;4198997;28;20094;-59
2022/07/24 05:46:17;;;;;;;10.00;9.10;;;;;;;33.22;43.41;101514.13;4198860;28;20568;-59
2022/07/24 05:48:23;;;;;;;11.00;9.90;;;;;;;33.25;43.08;101536.94;4198843;28;20040;-59
2022/07/24 05:50:25;;;;;;;10.02;9.02;;;;;;;33.26;43.00;101532.09;4198547;28;20430;-59
2022/07/24 05:52:26;;;;;;;10.35;9.35;;;;;;;33.25;44.05;101530.44;4198485;28;20032;-59
2022/07/24 05:54:28;;;;;;;11.43;10.32;;;;;;;33.25;44.16;101525.59;4198759;28;20041;-59
2022/07/24 05:56:30;;;;;;;10.90;9.80;;;;;;;33.26;43.35;101537.75;4198294;28;20102;-59
2022/07/24 05:58:31;;;;;;;11.02;9.93;;;;;;;33.25;43.50;101536.94;4198628;28;20044;-59
2022/07/24 06:00:33;;;;;;;11.13;9.90;;;;;;;33.25;44.43;101542.63;4197852;28;20054;-59
2022/07/24 06:02:34;;;;;;;9.93;9.02;;;;;;;33.25;43.87;101531.28;4198385;28;20041;-59
2022/07/24 06:04:41;;;;;;;10.57;9.50;;;;;;;33.23;43.53;101533.66;4198258;28;20040;-60
2022/07/24 06:06:45;;;;;;;10.45;9.45;;;;;;;33.24;43.49;101534.47;4198021;28;20044;-59
2022/07/24 06:08:46;;;;;;;10.85;9.85;;;;;;;33.23;43.82;101535.66;4198024;28;20048;-59
2022/07/24 06:10:48;;;;;;;10.57;9.68;;;;;;;33.23;43.42;101538.50;4197740;28;20142;-59
2022/07/24 06:12:49;;;;;;;9.88;9.07;;;;;;;33.23;43.56;101527.97;4198420;28;20036;-59
2022/07/24 06:14:50;;;;;;;11.18;10.07;;;;;;;33.23;44.05;101530.81;4198028;28;20536;-59
2022/07/24 06:16:54;;;;;;;10.73;9.63;;;;;;;33.24;44.46;101535.28;4198420;28;20036;-58
2022/07/24 06:18:56;;;;;;;10.68;9.60;;;;;;;33.23;43.79;101527.97;4197661;28;20157;-59
2022/07/24 06:20:57;;;;;;;10.32;9.35;;;;;;;33.23;43.71;101539.31;4197805;28;20048;-59
2022/07/24 06:23:01;;;;;;;10.18;9.27;;;;;;;33.24;43.51;101540.97;4197946;28;20118;-59
2022/07/24 06:25:03;;;;;;;10.45;9.45;;;;;;;33.23;43.85;101527.97;4198248;28;20078;-59
2022/07/24 06:27:04;;;;;;;10.38;9.48;;;;;;;33.21;43.65;101530.31;4197967;28;20044;-59
2022/07/24 06:29:06;;;;;;;10.38;9.43;;;;;;;33.24;43.38;101535.28;4197967;28;20051;-59
2022/07/24 06:31:07;;;;;;;10.02;9.10;;;;;;;33.24;43.84;101540.97;4198424;28;20097;-59
2022/07/24 06:33:08;;;;;;;10.38;9.48;;;;;;;33.24;44.58;101535.28;4197954;28;20435;-59
2022/07/24 06:35:10;;;;;;;11.13;10.00;;;;;;;33.23;44.94;101530.81;4198242;28;20086;-59
2022/07/24 06:37:14;;;;;;;9.82;8.95;;;;;;;33.23;44.49;101533.66;4197789;28;20040;-59
2022/07/24 06:39:16;;;;;;;10.60;9.48;;;;;;;33.21;44.45;101536.00;4197448;28;20036;-59
2022/07/24 06:41:20;;;;;;;9.95;9.05;;;;;;;33.24;44.41;101535.28;4197977;28;20040;-59
2022/07/24 06:43:21;;;;;;;10.20;9.20;;;;;;;33.23;44.17;101545.00;4197833;28;20037;-59
2022/07/24 06:45:31;;;;;;;10.13;9.15;;;;;;;33.24;43.95;101545.81;4197989;28;20107;-59
2022/07/24 06:47:32;;;;;;;10.52;9.52;;;;;;;33.23;43.66;101536.47;4198067;28;20045;-59
2022/07/24 06:49:33;;;;;;;10.93;9.93;;;;;;;33.22;44.15;101536.81;4197261;28;20032;-59
2022/07/24 06:51:34;;;;;;;10.95;9.95;;;;;;;33.21;44.51;101550.16;4197732;28;20044;-59
2022/07/24 06:53:37;;;;;;;10.23;9.25;;;;;;;33.22;44.90;101553.81;4198070;28;20094;-59
2022/07/24 06:55:38;;;;;;;10.98;9.95;;;;;;;33.21;44.90;101557.84;4197944;28;20097;-59
2022/07/24 06:57:42;;;;;;;10.70;9.77;;;;;;;33.17;44.79;101552.03;4197499;28;20480;-59
2022/07/24 06:59:43;;;;;;;11.88;10.60;;;;;;;33.21;45.07;101549.34;4197283;28;20037;-59
2022/07/24 07:01:48;;;;;;;10.07;9.07;;;;;;;33.20;44.84;101544.84;4197847;28;20070;-59
2022/07/24 07:03:51;;;;;;;;;;;;;;;33.18;44.40;101539.53;4198238;28;20040;-59
2022/07/24 07:05:52;;;;;;;10.95;9.85;;;;;;;33.24;44.97;101546.63;4195995;28;20342;-59
2022/07/24 07:07:59;;;;;;;10.88;9.88;;;;;;;33.24;44.24;101543.81;4197465;28;20086;-59
2022/07/24 07:10:00;;;;;;;10.45;9.45;;;;;;;33.24;44.37;101540.13;4197541;28;20472;-59
2022/07/24 07:12:03;;;;;;;10.23;9.23;;;;;;;33.23;44.38;101550.66;4197581;28;20526;-59
2022/07/24 07:14:07;;;;;;;11.20;10.07;;;;;;;33.22;44.47;101554.69;4197685;28;20074;-59
2022/07/24 07:16:11;;;;;;;10.13;9.23;;;;;;;33.18;44.89;101559.41;4197376;28;20430;-59
2022/07/24 07:18:14;;;;;;;10.05;9.13;;;;;;;33.21;44.84;101567.19;4196611;28;20110;-59
2022/07/24 07:20:15;;;;;;;10.10;9.20;;;;;;;33.20;45.00;101562.69;4197212;28;20044;-59
2022/07/24 07:22:17;;;;;;;9.80;8.90;;;;;;;33.20;44.44;101561.88;4197622;28;20086;-58
2022/07/24 07:24:18;;;;;;;10.75;9.35;;;;;;;33.18;44.52;101558.56;4197444;28;20040;-59
2022/07/24 07:26:20;;;;;;;10.57;9.63;;;;;;;33.14;44.54;101541.44;4197769;28;20373;-59
2022/07/24 07:28:21;;;;;;;10.65;9.52;;;;;;;33.18;44.71;101559.41;4197517;28;20040;-59
2022/07/24 07:30:23;;;;;;;10.23;9.23;;;;;;;33.19;44.23;101551.72;4197234;28;20641;-59
2022/07/24 07:32:27;;;;;;;11.48;9.73;;;;;;;33.17;44.45;101563.38;4197533;28;20037;-59
2022/07/24 07:34:28;;;;;;;11.27;10.18;;;;;;;33.13;44.62;101553.94;4197352;28;20041;-59
2022/07/24 07:36:30;;;;;;;10.85;9.75;;;;;;;33.17;44.70;101560.56;4197697;28;20036;-59
2022/07/24 07:38:33;;;;;;;10.80;9.68;;;;;;;33.18;44.76;101565.06;4197547;28;20422;-59
2022/07/24 07:40:34;;;;;;;10.45;9.45;;;;;;;33.15;44.94;101560.09;4196670;28;20106;-59
2022/07/24 07:42:36;;;;;;;10.45;9.55;;;;;;;33.17;44.79;101563.38;4197108;28;20075;-58
2022/07/24 07:44:37;;;;;;;10.48;9.00;;;;;;;33.17;44.90;101556.88;4197519;28;20101;-59
2022/07/24 07:46:38;;;;;;;9.70;8.80;;;;;;;33.17;44.75;101563.38;4197365;28;20041;-59
2022/07/24 07:48:42;;;;;;;10.15;9.15;;;;;;;33.18;44.57;101559.41;4197469;28;20552;-59
2022/07/24 07:50:44;;;;;;;10.65;9.63;;;;;;;33.16;44.70;101561.75;4197059;28;20044;-59
2022/07/24 07:52:48;;;;;;;10.13;9.13;;;;;;;33.18;44.80;101561.41;4197465;28;20094;-59
2022/07/24 07:54:51;;;;;;;9.85;8.85;;;;;;;33.16;44.48;101558.91;4197063;28;20377;-59
2022/07/24 07:56:52;;;;;;;9.23;8.38;;;;;;;33.17;44.66;101562.56;4197077;28;20090;-59
2022/07/24 07:58:56;;;;;;;10.23;9.27;;;;;;;33.15;44.67;101557.25;4196892;28;20040;-59
2022/07/24 08:00:57;;;;;;;9.48;8.63;;;;;;;33.17;44.55;101552.03;4196958;28;20090;-59
2022/07/24 08:02:59;;;;;;;10.77;8.88;;;;;;;33.17;44.91;101559.72;4197062;28;20028;-59
2022/07/24 08:05:00;;;;;;;9.98;8.95;;;;;;;33.16;44.45;101561.75;4197019;28;20048;-59
2022/07/24 08:07:04;;;;;;;9.82;8.93;;;;;;;33.16;44.74;101560.91;4196760;28;20037;-59
2022/07/24 08:09:06;;;;;;;10.02;9.02;;;;;;;33.13;44.81;101551.94;4196929;28;20040;-59
2022/07/24 08:11:08;;;;;;;9.18;8.20;;;;;;;33.14;45.12;101552.75;4197258;28;20452;-59
2022/07/24 08:13:11;;;;;;;10.75;9.10;;;;;;;33.10;45.28;101554.66;4196960;28;20048;-59
2022/07/24 08:15:12;;;;;;;9.75;8.77;;;;;;;33.14;45.28;101558.44;4197318;28;20037;-58
2022/07/24 08:17:17;;;;;;;9.88;8.98;;;;;;;33.15;45.01;101560.09;4197283;28;20045;-59
2022/07/24 08:19:18;;;;;;;9.88;8.90;;;;;;;33.14;45.08;101555.59;4196863;28;20078;-59
2022/07/24 08:21:19;;;;;;;9.88;8.88;;;;;;;33.11;45.25;101547.78;4197073;28;20106;-58
2022/07/24 08:23:21;;;;;;;9.23;8.38;;;;;;;33.14;45.21;101547.09;4197125;28;20098;-59
2022/07/24 08:25:22;;;;;;;9.52;8.63;;;;;;;33.12;44.95;101538.09;4197376;28;20028;-59
2022/07/24 08:27:24;;;;;;;9.57;8.68;;;;;;;33.12;44.96;101529.59;4197313;28;20468;-59
2022/07/24 08:29:28;;;;;;;11.27;8.40;;;;;;;33.12;45.03;101535.25;4196448;28;20418;-59
2022/07/24 08:31:29;;;;;;;;;;;;;;;33.09;44.92;101545.31;4197554;28;20086;-59
2022/07/24 08:33:31;;;;;;;10.40;8.70;;;;;;;33.16;44.86;101544.72;4199079;28;20364;-59
2022/07/24 08:35:32;;;;;;;9.80;8.80;;;;;;;33.15;44.85;101545.91;4200211;28;20448;-59
2022/07/24 08:37:37;;;;;;;9.73;8.82;;;;;;;33.12;44.89;101543.75;4199511;28;20032;-59
2022/07/24 08:39:41;;;;;;;9.90;9.00;;;;;;;33.07;44.88;101536.31;4199234;28;20130;-59
2022/07/24 08:41:43;;;;;;;9.43;8.52;;;;;;;33.10;45.09;101537.63;4199907;28;20441;-59
2022/07/24 08:43:51;;;;;;;9.60;8.70;;;;;;;33.08;45.03;101539.97;4199871;28;20040;-59
2022/07/24 08:45:59;;;;;;;10.55;8.85;;;;;;;33.12;45.27;101549.44;4199415;28;20041;-59
2022/07/24 08:48:08;;;;;;;9.40;8.35;;;;;;;33.12;45.08;101555.09;4199988;28;20529;-58
2022/07/24 08:50:10;;;;;;;9.15;8.10;;;;;;;33.04;45.27;101541.88;4199576;28;20071;-59
2022/07/24 08:52:18;;;;;;;9.68;8.63;;;;;;;33.09;45.10;101550.97;4200070;28;20553;-59
2022/07/24 08:54:19;;;;;;;13.77;8.57;;;;;;;33.09;44.87;101544.50;4199767;28;20028;-59
2022/07/24 08:56:21;;;;;;;8.90;8.07;;;;;;;33.08;44.96;101543.66;4199240;28;20075;-59
2022/07/24 08:58:25;;;;;;;8.88;8.07;;;;;;;33.09;45.11;101538.81;4198820;28;20468;-59
2022/07/24 09:00:29;;;;;;;8.65;7.85;;;;;;;33.08;45.02;101534.31;4198583;28;20041;-59
2022/07/24 09:02:30;;;;;;;10.73;8.35;;;;;;;33.07;44.83;101524.97;4199209;28;20040;-59
2022/07/24 09:04:38;;;;;;;8.70;7.90;;;;;;;33.07;44.85;101518.47;4199523;28;20037;-59
2022/07/24 09:06:57;;;;;;;8.75;7.95;;;;;;;33.05;44.77;101506.66;4199261;28;20510;-59
2022/07/24 09:09:01;;;;;;;8.77;7.82;;;;;;;33.07;44.73;101507.13;4199099;28;20097;-58
2022/07/24 09:11:06;;;;;;;9.02;8.07;;;;;;;33.07;44.99;101507.13;4199232;28;20048;-58
2022/07/24 09:13:16;;;;;;;8.65;7.85;;;;;;;33.05;44.79;101495.31;4199042;28;20041;-58
2022/07/24 09:15:22;;;;;;;8.80;8.00;;;;;;;33.06;44.54;101500.63;4199404;28;20427;-57
2022/07/24 09:17:24;;;;;;;8.65;7.85;;;;;;;33.03;44.86;101506.19;4199349;28;20541;-58
2022/07/24 09:19:25;;;;;;;8.27;7.30;;;;;;;33.04;44.75;101507.84;4198707;28;20040;-58
2022/07/24 09:21:27;;;;;;;9.00;7.32;;;;;;;33.05;44.73;101509.50;4198097;28;20086;-58
2022/07/24 09:23:33;;;;;;;8.18;7.38;;;;;;;33.05;44.83;101520.84;4199297;28;20063;-57
2022/07/24 09:25:35;;;;;;;9.75;7.90;;;;;;;33.03;44.78;101517.50;4199267;28;20086;-58
2022/07/24 09:27:40;;;;;;;9.02;8.13;;;;;;;33.03;44.85;101517.50;4199242;28;20033;-57
2022/07/24 09:29:42;;;;;;;8.65;7.85;;;;;;;32.97;44.77;101510.44;4198785;28;20045;-58